Aérodrome :
LOGIN :

S'inscrire | Disclaimer

   EN    FR    IT 

 










Légende :    VFR   VFR Marginal   IFR   IFR Intensif   IFR Très Intensif
Visi : 
Plafond : 
>= 8 km
>= 3000ft
5 à 8 km
1000 à 3000 ft
1500m à 5 km
500 à 1000 ft
800 à 1500m
200 à 500 ft
< 800m
< 200 ft
Symboles :   Orages  Brouillard  Fortes neiges  Fortes précipitations  Vent > 20 kt
SIGMETs :   Divers  Orages  Givrage  Turbulence  Onde Orograph.  Cendres Volcan.







- Altitude de l'aérodrome : 1090 ft
- Code IATA : CFE
- Voir les cartes d'approche


LFLC - Clermont-Ferrand Auvergne

DERNIER METAR :
  • 210430Z AUTO 18008KT CAVOK 06/04 Q1019 TEMPO 3000 BR VV///

METARs EXPIRÉS :
  • 210400Z AUTO 19005KT 160V240 CAVOK 06/05 Q1019 TEMPO 0400 FG VV///
  • 210330Z AUTO 18006KT CAVOK 07/05 Q1019 TEMPO 0400 FG VV///
  • 210300Z AUTO 20004KT 150V250 CAVOK 07/05 Q1020 TEMPO 0400 FG VV///
  • 210230Z AUTO 16003KT 100V230 CAVOK 07/05 Q1020 TEMPO 0400 FG VV///
  • 210200Z AUTO 17005KT 140V240 CAVOK 08/06 Q1020 TEMPO 0400 FG VV///

TAF TAF LFLC
Valide du 21 à 03h jusqu'au 22 à 03h UTC


210200Z 2103/2203 18004KT CAVOK
TEMPO 2103/2107 3000 BR
PROB30
TEMPO 2103/2106 0400 FG VV///
ATIS : +33 4 73 62 74 38
Pas de NOTAMs connus pour ce terrain.



MET'MAP, la Météo Aéronautique d'un coup d'oeil ! - Copyright ORBIFLY Décembre 2007 - Disclaimer

ORBIFLY MET'MAP TEAM :

Programmation & Développement : Alexandra Zaïnal
Conception & Développement : Baudouin d'Aumeries
Co-Programmation & Développement : Marc-Olivier Méhu
Soutien technique & logistique : Manuel Goepfert

Contact : metmap@orbifly.com




SOURCES & CREDITS :

   NOAA